createdAt,value
2016-05-06T00:00:33.900Z,28.13
2016-05-06T00:01:33.902Z,28.02
2016-05-06T00:02:33.906Z,28.69
2016-05-06T00:03:33.909Z,27.82
2016-05-06T00:04:33.911Z,27.06
2016-05-06T00:05:33.897Z,26.69
2016-05-06T00:06:33.900Z,27.08
2016-05-06T00:07:33.902Z,27.46
2016-05-06T00:08:33.906Z,28.69
2016-05-06T00:09:33.908Z,28.78
2016-05-06T00:10:33.755Z,28.69
2016-05-06T00:11:33.898Z,28.11
2016-05-06T00:12:33.902Z,27.45
2016-05-06T00:13:33.904Z,27.16
2016-05-06T00:14:33.907Z,27.75
2016-05-06T00:15:33.752Z,26.87
2016-05-06T00:16:33.755Z,27.55
2016-05-06T00:17:33.898Z,26.78
2016-05-06T00:18:33.902Z,27.08
2016-05-06T00:19:33.904Z,27.17
2016-05-06T00:20:33.915Z,28.04
2016-05-06T00:21:33.919Z,28.02
2016-05-06T00:22:33.905Z,28.69
2016-05-06T00:23:33.752Z,28.58
2016-05-06T00:24:33.910Z,28.78
2016-05-06T00:25:33.913Z,29.17
2016-05-06T00:26:33.916Z,28.3
2016-05-06T00:27:33.904Z,28.41
2016-05-06T00:28:33.906Z,27.92
2016-05-06T00:29:33.909Z,28.78
2016-05-06T00:30:33.912Z,28.78
2016-05-06T00:31:33.914Z,27.82
2016-05-06T00:32:33.917Z,28.2
2016-05-06T00:33:33.920Z,27.93
2016-05-06T00:34:33.765Z,27.92
2016-05-06T00:35:33.754Z,29.17
2016-05-06T00:36:33.912Z,29.07
2016-05-06T00:37:33.898Z,28.86
2016-05-06T00:38:33.901Z,28.78
2016-05-06T00:39:33.904Z,29.17
2016-05-06T00:40:33.750Z,27.92
2016-05-06T00:41:33.909Z,28.69
2016-05-06T00:42:33.928Z,28.88
2016-05-06T00:43:33.915Z,28.2
2016-05-06T00:44:33.902Z,29.17
2016-05-06T00:45:33.905Z,29.44
2016-05-06T00:46:33.751Z,28.88
2016-05-06T00:47:33.910Z,29.36
2016-05-06T00:48:33.897Z,28.67
2016-05-06T00:49:33.900Z,28.4
2016-05-06T00:50:33.902Z,29.94
2016-05-06T00:51:33.905Z,29.35
2016-05-06T00:52:33.893Z,29.15
2016-05-06T00:53:33.911Z,28.88
2016-05-06T00:54:33.913Z,29.35
2016-05-06T00:55:33.760Z,29.93
2016-05-06T00:56:33.904Z,31.16
2016-05-06T00:57:33.906Z,29.9
2016-05-06T00:58:33.909Z,29.91
2016-05-06T00:59:33.895Z,30.29
2016-05-06T01:00:33.915Z,30
2016-05-06T01:01:33.901Z,29.93
2016-05-06T01:02:33.904Z,29.73
2016-05-06T01:03:33.906Z,29.15
2016-05-06T01:04:33.893Z,28.97
2016-05-06T01:05:33.912Z,28.49
2016-05-06T01:06:33.759Z,29.07
2016-05-06T01:07:33.745Z,29.46
2016-05-06T01:08:33.904Z,29.83
2016-05-06T01:09:33.907Z,29.44
2016-05-06T01:10:33.753Z,29.83
2016-05-06T01:11:33.897Z,29.44
2016-05-06T01:12:33.899Z,28.97
2016-05-06T01:13:33.903Z,29.07
2016-05-06T01:14:33.905Z,29.07
2016-05-06T01:15:33.908Z,29.94
2016-05-06T01:16:33.910Z,29.35
2016-05-06T01:17:33.897Z,29.35
2016-05-06T01:18:33.900Z,28.86
2016-05-06T01:19:33.903Z,29.44
2016-05-06T01:20:33.905Z,28.86
2016-05-06T01:21:33.907Z,28.77
2016-05-06T01:22:33.895Z,28.88
2016-05-06T01:23:33.897Z,28.11
2016-05-06T01:24:33.900Z,29.65
2016-05-06T01:25:34.137Z,30.19
2016-05-06T01:26:33.906Z,30
2016-05-06T01:27:33.908Z,29.73
2016-05-06T01:28:33.896Z,29.73
2016-05-06T01:29:33.898Z,30.77
2016-05-06T01:30:33.901Z,29.24
2016-05-06T01:31:33.748Z,30.02
2016-05-06T01:32:33.906Z,29.93
2016-05-06T01:33:33.909Z,31.54
2016-05-06T01:34:33.739Z,31.24
2016-05-06T01:35:33.899Z,30.87
2016-05-06T01:36:33.901Z,30.77
2016-05-06T01:37:33.919Z,30.95
2016-05-06T01:38:33.891Z,30.77
2016-05-06T01:39:33.910Z,30.97
2016-05-06T01:40:34.162Z,30.39
2016-05-06T01:41:33.727Z,31.16
2016-05-06T01:42:33.746Z,30.95
2016-05-06T01:43:33.889Z,31.06
2016-05-06T01:44:33.892Z,30.58
2016-05-06T01:45:33.894Z,30.68
2016-05-06T01:46:33.897Z,30.77
2016-05-06T01:47:33.884Z,31.83
2016-05-06T01:48:33.903Z,30.95
2016-05-06T01:49:33.889Z,31.16
2016-05-06T01:50:33.891Z,31.43
2016-05-06T01:51:33.895Z,31.06
2016-05-06T01:52:33.898Z,30
2016-05-06T01:53:33.885Z,29.54
2016-05-06T01:54:33.887Z,30.4
2016-05-06T01:55:33.906Z,31.16
2016-05-06T01:56:33.893Z,30.58
2016-05-06T01:57:33.739Z,30.31
2016-05-06T01:58:33.882Z,30.11
2016-05-06T01:59:33.885Z,30.58
2016-05-06T02:00:33.904Z,30.97
2016-05-06T02:01:33.734Z,30.58
2016-05-06T02:02:33.877Z,30.1
2016-05-06T02:03:33.911Z,30.31
2016-05-06T02:04:33.883Z,30.68
2016-05-06T02:05:33.885Z,31.64
2016-05-06T02:06:33.888Z,31.53
2016-05-06T02:07:33.890Z,31.64
2016-05-06T02:08:33.893Z,31.93
2016-05-06T02:09:33.896Z,32.01
2016-05-06T02:10:34.961Z,32.2
2016-05-06T02:11:33.886Z,32.59
2016-05-06T02:12:33.889Z,32.87
2016-05-06T02:13:33.720Z,32.01
2016-05-06T02:14:33.878Z,31.53
2016-05-06T02:15:33.881Z,31.45
2016-05-06T02:16:33.884Z,31.26
2016-05-06T02:17:33.872Z,30.49
2016-05-06T02:18:33.874Z,31.45
2016-05-06T02:19:33.877Z,30.68
2016-05-06T02:20:33.880Z,31.18
2016-05-06T02:21:33.882Z,31.93
2016-05-06T02:22:33.869Z,32.39
2016-05-06T02:23:33.719Z,31.82
2016-05-06T02:24:33.878Z,30.87
2016-05-06T02:25:33.725Z,30.98
2016-05-06T02:26:33.884Z,31.64
2016-05-06T02:27:33.870Z,32.12
2016-05-06T02:28:33.717Z,31.45
2016-05-06T02:29:33.875Z,31.93
2016-05-06T02:30:33.864Z,31.43
2016-05-06T02:31:33.881Z,32.12
2016-05-06T02:32:33.868Z,31.82
2016-05-06T02:33:33.871Z,31.16
2016-05-06T02:34:33.874Z,31.64
2016-05-06T02:35:33.877Z,31.26
2016-05-06T02:36:33.707Z,30.77
2016-05-06T02:37:33.867Z,30.5
2016-05-06T02:38:33.869Z,31.18
2016-05-06T02:39:33.872Z,30.39
2016-05-06T02:40:33.874Z,31.37
2016-05-06T02:41:33.860Z,31.16
2016-05-06T02:42:33.863Z,30.97
2016-05-06T02:43:33.867Z,31.08
2016-05-06T02:44:33.713Z,30.69
2016-05-06T02:45:33.856Z,31.18
2016-05-06T02:46:33.703Z,31.56
2016-05-06T02:47:33.862Z,31.16
2016-05-06T02:48:33.864Z,32.41
2016-05-06T02:49:33.851Z,32.57
2016-05-06T02:50:33.855Z,31.72
2016-05-06T02:51:33.857Z,32.51
2016-05-06T02:52:33.859Z,31.92
2016-05-06T02:53:33.691Z,30.77
2016-05-06T02:54:33.848Z,31.26
2016-05-06T02:55:33.915Z,31.26
2016-05-06T02:56:33.854Z,30
2016-05-06T02:57:33.857Z,29.74
2016-05-06T02:58:33.860Z,29.94
2016-05-06T02:59:33.848Z,30.8
2016-05-06T03:00:33.850Z,31.37
2016-05-06T03:01:33.852Z,30.97
2016-05-06T03:02:33.700Z,30.11
2016-05-06T03:03:33.858Z,30.88
2016-05-06T03:04:33.845Z,30.69
2016-05-06T03:05:33.847Z,30.5
2016-05-06T03:06:33.850Z,30.79
2016-05-06T03:07:33.853Z,30.98
2016-05-06T03:08:33.840Z,30.6
2016-05-06T03:09:33.843Z,30.21
2016-05-06T03:10:33.986Z,31
2016-05-06T03:11:33.849Z,30.79
2016-05-06T03:12:33.835Z,31.37
2016-05-06T03:13:33.838Z,30.98
2016-05-06T03:14:33.840Z,30.88
2016-05-06T03:15:33.844Z,30.88
2016-05-06T03:16:33.830Z,30.98
2016-05-06T03:17:33.849Z,30.4
2016-05-06T03:18:33.679Z,31.56
2016-05-06T03:19:33.838Z,32.89
2016-05-06T03:20:33.841Z,32.39
2016-05-06T03:21:33.843Z,31.83
2016-05-06T03:22:33.831Z,31.74
2016-05-06T03:23:33.834Z,31.83
2016-05-06T03:24:33.837Z,31.93
2016-05-06T03:25:34.089Z,31.93
2016-05-06T03:26:33.826Z,31.35
2016-05-06T03:27:33.673Z,30.68
2016-05-06T03:28:33.847Z,31.08
2016-05-06T03:29:33.834Z,32.04
2016-05-06T03:30:33.821Z,32.21
2016-05-06T03:31:33.823Z,32.68
2016-05-06T03:32:33.670Z,31.45
2016-05-06T03:33:33.829Z,31.35
2016-05-06T03:34:33.847Z,32.31
2016-05-06T03:35:33.834Z,33.16
2016-05-06T03:36:33.822Z,32.68
2016-05-06T03:37:33.825Z,31.26
2016-05-06T03:38:33.827Z,31.65
2016-05-06T03:39:33.830Z,30.77
2016-05-06T03:40:34.489Z,30.02
2016-05-06T03:41:33.830Z,31.77
2016-05-06T03:42:33.830Z,31.54
2016-05-06T03:43:33.899Z,32.03
2016-05-06T03:44:33.807Z,31.93
2016-05-06T03:45:33.810Z,31.16
2016-05-06T03:46:33.813Z,30.5
2016-05-06T03:47:33.816Z,31.46
2016-05-06T03:48:33.849Z,31.85
2016-05-06T03:49:33.836Z,30.87
2016-05-06T03:50:33.807Z,30.61
2016-05-06T03:51:33.810Z,31.27
2016-05-06T03:52:33.813Z,31.08
2016-05-06T03:53:33.862Z,30.98
2016-05-06T03:54:33.647Z,31.18
2016-05-06T03:55:33.649Z,31.27
2016-05-06T03:56:33.824Z,31.65
2016-05-06T03:57:33.795Z,31.92
2016-05-06T03:58:33.798Z,32.98
2016-05-06T03:59:33.645Z,32.59
2016-05-06T04:00:33.804Z,31.83
2016-05-06T04:01:33.806Z,31.45
2016-05-06T04:02:33.792Z,31.83
2016-05-06T04:03:33.640Z,32.51
2016-05-06T04:04:33.798Z,32.78
2016-05-06T04:05:33.800Z,32.51
2016-05-06T04:06:33.789Z,31.82
2016-05-06T04:07:33.807Z,32.12
2016-05-06T04:08:33.794Z,32.51
2016-05-06T04:09:33.796Z,33.07
2016-05-06T04:10:33.628Z,31.64
2016-05-06T04:11:33.785Z,30.49
2016-05-06T04:12:33.789Z,31.19
2016-05-06T04:13:33.791Z,31.16
2016-05-06T04:14:33.778Z,30.69
2016-05-06T04:15:33.781Z,30.6
2016-05-06T04:16:33.783Z,30.9
2016-05-06T04:17:33.786Z,31.95
2016-05-06T04:18:33.773Z,30.87
2016-05-06T04:19:33.777Z,30.4
2016-05-06T04:20:33.779Z,30.13
2016-05-06T04:21:33.782Z,30.04
2016-05-06T04:22:33.784Z,31
2016-05-06T04:23:33.771Z,31.18
2016-05-06T04:24:33.774Z,30.88
2016-05-06T04:25:33.776Z,30.11
2016-05-06T04:26:33.607Z,31
2016-05-06T04:27:33.766Z,30.98
2016-05-06T04:28:33.613Z,30.88
2016-05-06T04:29:33.615Z,31.87
2016-05-06T04:30:33.618Z,32.12
2016-05-06T04:31:33.762Z,31.26
2016-05-06T04:32:33.765Z,31.56
2016-05-06T04:33:33.767Z,30.79
2016-05-06T04:34:33.614Z,30.52
2016-05-06T04:35:33.757Z,30.32
2016-05-06T04:36:33.775Z,30.71
2016-05-06T04:37:33.762Z,31.37
2016-05-06T04:38:33.764Z,31.18
2016-05-06T04:39:33.767Z,31.75
2016-05-06T04:40:33.614Z,31.95
2016-05-06T04:41:33.758Z,32.6
2016-05-06T04:42:33.760Z,31.26
2016-05-06T04:43:33.763Z,31.37
2016-05-06T04:44:33.750Z,32.23
2016-05-06T04:45:33.596Z,30.87
2016-05-06T04:46:33.755Z,31.38
2016-05-06T04:47:33.602Z,31.48
2016-05-06T04:48:33.761Z,32.52
2016-05-06T04:49:33.747Z,32.21
2016-05-06T04:50:33.594Z,32.14
2016-05-06T04:51:33.752Z,33.74
2016-05-06T04:52:33.755Z,32.31
2016-05-06T04:53:33.743Z,32.14
2016-05-06T04:54:33.746Z,32.79
2016-05-06T04:55:34.216Z,33.58
2016-05-06T04:56:33.751Z,32.59
2016-05-06T04:57:33.754Z,32.04
2016-05-06T04:58:33.756Z,31.18
2016-05-06T04:59:33.743Z,31
2016-05-06T05:00:33.745Z,31.29
2016-05-06T05:01:33.749Z,31.29
2016-05-06T05:02:33.751Z,30.98
2016-05-06T05:03:33.753Z,31.09
2016-05-06T05:04:33.741Z,31.57
2016-05-06T05:05:33.743Z,30.79
2016-05-06T05:06:33.590Z,30.32
2016-05-06T05:07:33.795Z,30.15
2016-05-06T05:08:33.752Z,29.95
2016-05-06T05:09:33.754Z,30.9
2016-05-06T05:10:33.780Z,30.9
2016-05-06T05:11:33.829Z,31.29
2016-05-06T05:12:33.864Z,31
2016-05-06T05:13:33.758Z,31.19
2016-05-06T05:14:33.964Z,29.94
2016-05-06T05:15:33.999Z,29.38
2016-05-06T05:16:33.863Z,29.47
2016-05-06T05:17:34.039Z,29.76
2016-05-06T05:18:33.902Z,31.01
2016-05-06T05:19:34.077Z,30.61
2016-05-06T05:20:34.092Z,30.05
2016-05-06T05:21:34.101Z,30.05
2016-05-06T05:22:34.110Z,31.21
2016-05-06T05:23:34.118Z,30.9
2016-05-06T05:24:34.128Z,30.05
2016-05-06T05:25:34.134Z,29.86
2016-05-06T05:26:34.124Z,29.95
2016-05-06T05:27:34.128Z,29.66
2016-05-06T05:28:34.134Z,29.38
2016-05-06T05:29:34.138Z,29.1
2016-05-06T05:30:34.142Z,29.39
2016-05-06T05:31:34.146Z,29.2
2016-05-06T05:32:34.149Z,29.1
2016-05-06T05:33:34.153Z,30.16
2016-05-06T05:34:34.000Z,30.43
2016-05-06T05:35:34.160Z,30.05
2016-05-06T05:36:34.162Z,29.77
2016-05-06T05:37:34.166Z,29.77
2016-05-06T05:38:34.169Z,29.58
2016-05-06T05:39:34.172Z,30.16
2016-05-06T05:40:34.738Z,29.08
2016-05-06T05:41:34.163Z,29.02
2016-05-06T05:42:34.165Z,29
2016-05-06T05:43:34.199Z,28.83
2016-05-06T05:44:34.171Z,28.83
2016-05-06T05:45:34.016Z,29.5
2016-05-06T05:46:34.176Z,29.68
2016-05-06T05:47:34.179Z,29.1
2016-05-06T05:48:34.182Z,29.39
2016-05-06T05:49:34.184Z,29.6
2016-05-06T05:50:34.187Z,29.11
2016-05-06T05:51:34.189Z,29.98
2016-05-06T05:52:34.192Z,29.97
2016-05-06T05:53:34.038Z,29.2
2016-05-06T05:54:34.041Z,29.89
2016-05-06T05:55:34.200Z,29.77
2016-05-06T05:56:34.203Z,29.79
2016-05-06T05:57:34.049Z,29.98
2016-05-06T05:58:34.208Z,31.33
2016-05-06T05:59:34.211Z,30.53
2016-05-06T06:00:34.214Z,30.35
2016-05-06T06:01:34.216Z,29.98
2016-05-06T06:02:34.219Z,30.46
2016-05-06T06:03:34.222Z,29.87
2016-05-06T06:04:34.208Z,30.08
2016-05-06T06:05:34.227Z,30.46
2016-05-06T06:06:34.230Z,30.26
2016-05-06T06:07:34.217Z,29.11
2016-05-06T06:08:34.219Z,30
2016-05-06T06:09:34.238Z,30.07
2016-05-06T06:10:34.224Z,29.11
2016-05-06T06:11:34.227Z,28.45
2016-05-06T06:12:34.246Z,28.07
2016-05-06T06:13:34.249Z,28.37
2016-05-06T06:14:34.267Z,27.97
2016-05-06T06:15:34.082Z,28.08
2016-05-06T06:16:34.256Z,28.08
2016-05-06T06:17:34.260Z,28.66
2016-05-06T06:18:34.262Z,28.94
2016-05-06T06:19:34.108Z,28.07
2016-05-06T06:20:34.268Z,28.66
2016-05-06T06:21:34.270Z,27.6
2016-05-06T06:22:34.273Z,27.42
2016-05-06T06:23:34.275Z,27.5
2016-05-06T06:24:34.279Z,27.23
2016-05-06T06:25:34.281Z,27.91
2016-05-06T06:26:34.299Z,27.61
2016-05-06T06:27:34.286Z,27.23
2016-05-06T06:28:34.320Z,26.65
2016-05-06T06:29:34.322Z,26.46
2016-05-06T06:30:34.310Z,27.14
2016-05-06T06:31:34.312Z,26.37
2016-05-06T06:32:34.314Z,26.86
2016-05-06T06:33:34.334Z,27.81
2016-05-06T06:34:34.320Z,27.7
2016-05-06T06:35:34.322Z,26.92
2016-05-06T06:36:34.342Z,26.18
2016-05-06T06:37:34.344Z,25.71
2016-05-06T06:38:34.347Z,27.25
2016-05-06T06:39:34.350Z,27.42
2016-05-06T06:40:34.352Z,27.61
2016-05-06T06:41:34.558Z,26.46
2016-05-06T06:42:34.357Z,27.14
2016-05-06T06:43:34.375Z,26.37
2016-05-06T06:44:34.378Z,25.98
2016-05-06T06:45:34.381Z,25.81
2016-05-06T06:46:34.384Z,25.98
2016-05-06T06:47:34.386Z,26.95
2016-05-06T06:48:34.249Z,26.56
2016-05-06T06:49:34.407Z,26.28
2016-05-06T06:50:34.410Z,27.24
2016-05-06T06:51:34.413Z,27.03
2016-05-06T06:52:34.416Z,26.28
2016-05-06T06:53:34.418Z,26.18
2016-05-06T06:54:34.437Z,26.09
2016-05-06T06:55:34.439Z,25.13
2016-05-06T06:56:34.457Z,25.23
2016-05-06T06:57:34.288Z,25.24
2016-05-06T06:58:34.447Z,25.14
2016-05-06T06:59:34.451Z,25.34
2016-05-06T07:00:34.468Z,25.04
2016-05-06T07:01:34.471Z,25.04
2016-05-06T07:02:34.490Z,25.14
2016-05-06T07:03:34.492Z,25.14
2016-05-06T07:04:34.494Z,25.43
2016-05-06T07:05:34.513Z,25.32
2016-05-06T07:06:34.500Z,25.52
2016-05-06T07:07:34.503Z,25.14
2016-05-06T07:08:34.521Z,24.66
2016-05-06T07:09:34.368Z,24.08
2016-05-06T07:10:34.527Z,24.57
2016-05-06T07:11:34.544Z,24.18
2016-05-06T07:12:34.547Z,24.38
2016-05-06T07:13:34.550Z,23.79
2016-05-06T07:14:34.552Z,24.28
2016-05-06T07:15:34.571Z,24.96
2016-05-06T07:16:34.574Z,24.56
2016-05-06T07:17:34.577Z,24.08
2016-05-06T07:18:34.580Z,24.18
2016-05-06T07:19:34.582Z,23.8
2016-05-06T07:20:34.600Z,23.02
2016-05-06T07:21:34.602Z,23.8
2016-05-06T07:22:34.621Z,23.32
2016-05-06T07:23:34.629Z,24.37
2016-05-06T07:24:34.631Z,24.08
2016-05-06T07:25:34.634Z,25.04
2016-05-06T07:26:34.496Z,25.14
2016-05-06T07:27:34.656Z,25.13
2016-05-06T07:28:34.658Z,25.32
2016-05-06T07:29:34.661Z,24.65
2016-05-06T07:30:34.664Z,24.65
2016-05-06T07:31:34.667Z,24.65
2016-05-06T07:32:34.685Z,24.93
2016-05-06T07:33:34.687Z,24.93
2016-05-06T07:34:34.689Z,25.32
2016-05-06T07:35:34.692Z,24.66
2016-05-06T07:36:34.711Z,24.37
2016-05-06T07:37:34.713Z,24.85
2016-05-06T07:38:34.716Z,23.98
2016-05-06T07:39:34.719Z,24.37
2016-05-06T07:40:34.722Z,23.98
2016-05-06T07:41:35.099Z,23.59
2016-05-06T07:42:34.742Z,23.21
2016-05-06T07:43:34.730Z,24.18
2016-05-06T07:44:34.747Z,24.18
2016-05-06T07:45:34.750Z,23.22
2016-05-06T07:46:34.753Z,23.22
2016-05-06T07:47:34.755Z,23.22
2016-05-06T07:48:34.619Z,23.22
2016-05-06T07:49:34.621Z,23.5
2016-05-06T07:50:34.623Z,22.92
2016-05-06T07:51:34.626Z,22.92
2016-05-06T07:52:34.785Z,23.8
2016-05-06T07:53:34.631Z,23.41
2016-05-06T07:54:34.806Z,23.12
2016-05-06T07:55:34.809Z,22.92
2016-05-06T07:56:34.812Z,22.83
2016-05-06T07:57:34.814Z,23.12
2016-05-06T07:58:34.661Z,23.32
2016-05-06T07:59:34.820Z,23.22
2016-05-06T08:00:34.822Z,23.12
2016-05-06T08:01:34.825Z,23.22
2016-05-06T08:02:34.828Z,23.32
2016-05-06T08:03:34.845Z,23.5
2016-05-06T08:04:34.848Z,23.02
2016-05-06T08:05:34.836Z,23.7
2016-05-06T08:06:34.854Z,23.33
2016-05-06T08:07:34.872Z,22.92
2016-05-06T08:08:34.859Z,24.09
2016-05-06T08:09:34.862Z,24.09
2016-05-06T08:10:34.864Z,24.09
2016-05-06T08:11:34.867Z,24.09
2016-05-06T08:12:34.869Z,24.38
2016-05-06T08:13:34.873Z,24.18
2016-05-06T08:14:34.875Z,24.67
2016-05-06T08:15:34.894Z,23.32
2016-05-06T08:16:34.880Z,23.99
2016-05-06T08:17:34.883Z,23.9
2016-05-06T08:18:34.886Z,24.38
2016-05-06T08:19:34.888Z,24.38
2016-05-06T08:20:34.891Z,24.09
2016-05-06T08:21:34.894Z,24.17
2016-05-06T08:22:34.897Z,23.79
2016-05-06T08:23:34.899Z,24.85
2016-05-06T08:24:34.762Z,24.67
2016-05-06T08:25:34.921Z,23.99
2016-05-06T08:26:35.110Z,24.38
2016-05-06T08:27:34.910Z,24.27
2016-05-06T08:28:34.913Z,24.18
2016-05-06T08:29:34.915Z,24.09
2016-05-06T08:30:34.918Z,24.56
2016-05-06T08:31:34.921Z,24.38
2016-05-06T08:32:34.924Z,23.99
2016-05-06T08:33:34.926Z,24.08
2016-05-06T08:34:34.945Z,24.76
2016-05-06T08:35:34.948Z,24.17
2016-05-06T08:36:34.950Z,25.14
2016-05-06T08:37:34.953Z,25.14
2016-05-06T08:38:34.955Z,25.32
2016-05-06T08:39:35.131Z,25.03
2016-05-06T08:40:34.961Z,25.43
2016-05-06T08:41:35.120Z,24.18
2016-05-06T08:42:34.810Z,24.08
2016-05-06T08:43:34.969Z,24.46
2016-05-06T08:44:34.972Z,24.56
2016-05-06T08:45:34.990Z,24.66
2016-05-06T08:46:34.993Z,25.34
2016-05-06T08:47:34.980Z,24.66
2016-05-06T08:48:34.982Z,24.85
2016-05-06T08:49:35.001Z,24.17
2016-05-06T08:50:34.847Z,24.46
2016-05-06T08:51:35.021Z,24.56
2016-05-06T08:52:35.010Z,24.27
2016-05-06T08:53:35.012Z,24.37
2016-05-06T08:54:35.015Z,24.56
2016-05-06T08:55:35.032Z,24.56
2016-05-06T08:56:35.035Z,24.37
2016-05-06T08:57:35.035Z,24.56
2016-05-06T08:58:35.038Z,24.27
2016-05-06T08:59:35.041Z,24.27
2016-05-06T09:00:35.059Z,24.08
2016-05-06T09:01:34.906Z,24.27
2016-05-06T09:02:34.908Z,24.08
2016-05-06T09:03:34.912Z,23.88
2016-05-06T09:04:34.914Z,24.08
2016-05-06T09:05:35.073Z,23.59
2016-05-06T09:06:35.075Z,23.59
2016-05-06T09:07:35.093Z,24.27
2016-05-06T09:08:35.095Z,23.88
2016-05-06T09:09:35.098Z,23.79
2016-05-06T09:10:35.101Z,24.17
2016-05-06T09:11:35.448Z,24.17
2016-05-06T09:12:35.123Z,24.27
2016-05-06T09:13:35.125Z,24.16
2016-05-06T09:14:35.128Z,24.08
2016-05-06T09:15:35.130Z,23.79
2016-05-06T09:16:35.133Z,23.77
2016-05-06T09:17:35.152Z,24.07
2016-05-06T09:18:35.155Z,24.27
2016-05-06T09:19:35.172Z,23.3
2016-05-06T09:20:35.160Z,23.79
2016-05-06T09:21:35.162Z,23.4
2016-05-06T09:22:35.181Z,24.27
2016-05-06T09:23:35.199Z,23.4
2016-05-06T09:24:35.029Z,23.3
2016-05-06T09:25:35.189Z,23.3
2016-05-06T09:26:35.770Z,23.69
2016-05-06T09:27:35.210Z,23.69
2016-05-06T09:28:35.229Z,23.5
2016-05-06T09:29:35.215Z,23.3
2016-05-06T09:30:35.218Z,23.3
2016-05-06T09:31:35.236Z,23.4
2016-05-06T09:32:35.239Z,23.3
2016-05-06T09:33:35.085Z,23.3
2016-05-06T09:34:35.088Z,23.79
2016-05-06T09:35:35.263Z,23.69
2016-05-06T09:36:35.265Z,23.77
2016-05-06T09:37:35.268Z,23.79
2016-05-06T09:38:35.287Z,23.39
2016-05-06T09:39:35.289Z,23.3
2016-05-06T09:40:35.292Z,23.01
2016-05-06T09:41:35.154Z,23.4
2016-05-06T09:42:35.312Z,23.79
2016-05-06T09:43:35.300Z,23.3
2016-05-06T09:44:35.147Z,23.3
2016-05-06T09:45:35.321Z,24.17
2016-05-06T09:46:35.323Z,23.59
2016-05-06T09:47:35.342Z,23.69
2016-05-06T09:48:35.345Z,23.59
2016-05-06T09:49:35.191Z,24.08
2016-05-06T09:50:35.349Z,24.08
2016-05-06T09:51:35.353Z,24.16
2016-05-06T09:52:35.355Z,23.97
2016-05-06T09:53:35.421Z,24.08
2016-05-06T09:54:35.392Z,23.69
2016-05-06T09:55:35.410Z,23.59
2016-05-06T09:56:35.225Z,23.3
2016-05-06T09:57:35.385Z,23.3
2016-05-06T09:58:35.402Z,23.4
2016-05-06T09:59:35.405Z,23.21
2016-05-06T10:00:35.407Z,23.3
2016-05-06T10:01:35.411Z,23.5
2016-05-06T10:02:35.413Z,23.69
2016-05-06T10:03:35.431Z,23.69
2016-05-06T10:04:35.451Z,24.26
2016-05-06T10:05:35.453Z,23.77
2016-05-06T10:06:35.439Z,24.26
2016-05-06T10:07:35.443Z,24.26
2016-05-06T10:08:35.461Z,24.26
2016-05-06T10:09:35.464Z,24.26
2016-05-06T10:10:35.482Z,23.68
2016-05-06T10:11:35.750Z,23.1
2016-05-06T10:12:35.503Z,23.68
2016-05-06T10:13:35.334Z,23.39
2016-05-06T10:14:35.524Z,23.49
2016-05-06T10:15:35.495Z,23.29
2016-05-06T10:16:35.514Z,23.29
2016-05-06T10:17:35.516Z,23.39
2016-05-06T10:18:35.534Z,23
2016-05-06T10:19:35.366Z,23.19
2016-05-06T10:20:35.539Z,23
2016-05-06T10:21:35.543Z,23.19
2016-05-06T10:22:35.561Z,23.19
2016-05-06T10:23:35.548Z,23.29
2016-05-06T10:24:35.566Z,23.29
2016-05-06T10:25:35.568Z,23.19
2016-05-06T10:26:35.556Z,23.19
2016-05-06T10:27:35.574Z,23.49
2016-05-06T10:28:35.577Z,23.29
2016-05-06T10:29:35.596Z,23
2016-05-06T10:30:35.598Z,23.19
2016-05-06T10:31:35.444Z,23.19
2016-05-06T10:32:35.604Z,23.39
2016-05-06T10:33:35.622Z,23
2016-05-06T10:34:35.640Z,23.39
2016-05-06T10:35:35.627Z,23
2016-05-06T10:36:35.473Z,23.1
2016-05-06T10:37:35.648Z,22.52
2016-05-06T10:38:35.635Z,23
2016-05-06T10:39:35.653Z,22.91
2016-05-06T10:40:35.672Z,23
2016-05-06T10:41:35.784Z,23.1
2016-05-06T10:42:35.678Z,22.91
2016-05-06T10:43:35.680Z,22.91
2016-05-06T10:44:35.683Z,22.81
2016-05-06T10:45:35.686Z,22.23
2016-05-06T10:46:35.703Z,22.42
2016-05-06T10:47:35.706Z,22.23
2016-05-06T10:48:35.709Z,22.13
2016-05-06T10:49:35.711Z,21.94
2016-05-06T10:50:35.731Z,22.42
2016-05-06T10:51:35.733Z,22.23
2016-05-06T10:52:35.735Z,22.52
2016-05-06T10:53:35.769Z,22.81
2016-05-06T10:54:35.741Z,22.61
2016-05-06T10:55:35.759Z,22.13
2016-05-06T10:56:35.762Z,22.52
2016-05-06T10:57:35.764Z,22.52
2016-05-06T10:58:35.767Z,22.42
2016-05-06T10:59:35.785Z,22.33
2016-05-06T11:00:35.789Z,22.23
2016-05-06T11:01:36.103Z,22.23
2016-05-06T11:02:35.810Z,22.23
2016-05-06T11:03:35.812Z,22.61
2016-05-06T11:04:35.674Z,22.61
2016-05-06T11:05:35.817Z,23.1
2016-05-06T11:06:35.663Z,23.1
2016-05-06T11:07:35.838Z,23
2016-05-06T11:08:35.857Z,22.91
2016-05-06T11:09:35.843Z,22.23
2016-05-06T11:10:35.690Z,22.13
2016-05-06T11:11:35.865Z,22.13
2016-05-06T11:12:35.852Z,22.42
2016-05-06T11:13:35.870Z,21.94
2016-05-06T11:14:35.873Z,21.94
2016-05-06T11:15:35.892Z,21.94
2016-05-06T11:16:35.894Z,21.94
2016-05-06T11:17:35.897Z,22.23
2016-05-06T11:18:35.900Z,22.23
2016-05-06T11:19:35.917Z,21.84
2016-05-06T11:20:35.905Z,21.84
2016-05-06T11:21:35.923Z,22.03
2016-05-06T11:22:35.942Z,21.75
2016-05-06T11:23:35.944Z,21.94
2016-05-06T11:24:35.790Z,22.13
2016-05-06T11:25:35.950Z,22.33
2016-05-06T11:26:36.780Z,22.13
2016-05-06T11:27:35.955Z,22.42
2016-05-06T11:28:35.973Z,22.42
2016-05-06T11:29:35.975Z,22.13
2016-05-06T11:30:35.822Z,22.13
2016-05-06T11:31:35.981Z,22.13
2016-05-06T11:32:35.999Z,22.13
2016-05-06T11:33:36.002Z,21.94
2016-05-06T11:34:36.005Z,22.13
2016-05-06T11:35:35.851Z,21.55
2016-05-06T11:36:36.027Z,20.87
2016-05-06T11:37:36.029Z,21.45
2016-05-06T11:38:36.031Z,20.97
2016-05-06T11:39:36.035Z,20.78
2016-05-06T11:40:36.052Z,20.87
2016-05-06T11:41:36.055Z,20.97
2016-05-06T11:42:36.057Z,20.78
2016-05-06T11:43:36.076Z,21.07
2016-05-06T11:44:36.079Z,20.68
2016-05-06T11:45:36.081Z,21.07
2016-05-06T11:46:36.084Z,21.26
2016-05-06T11:47:36.087Z,21.36
2016-05-06T11:48:36.105Z,21.07
2016-05-06T11:49:36.108Z,21.07
2016-05-06T11:50:36.111Z,21.36
2016-05-06T11:51:36.129Z,21.65
2016-05-06T11:52:36.131Z,21.36
2016-05-06T11:53:36.134Z,21.55
2016-05-06T11:54:36.137Z,21.15
2016-05-06T11:55:36.139Z,21.36
2016-05-06T11:56:36.142Z,21.65
2016-05-06T11:57:36.160Z,21.55
2016-05-06T11:58:36.008Z,21.17
2016-05-06T11:59:36.166Z,21.17
2016-05-06T12:00:36.183Z,20.97
2016-05-06T12:01:36.187Z,20.97
2016-05-06T12:02:36.189Z,20.87
2016-05-06T12:03:36.192Z,20.78
2016-05-06T12:04:36.210Z,20.78
2016-05-06T12:05:36.214Z,20.68
2016-05-06T12:06:36.216Z,20.39
2016-05-06T12:07:36.218Z,20.87
2016-05-06T12:08:36.222Z,20.68
2016-05-06T12:09:36.240Z,20.97
2016-05-06T12:10:36.243Z,21.17
2016-05-06T12:11:36.463Z,21.06
2016-05-06T12:12:36.248Z,20.49
2016-05-06T12:13:36.266Z,20.68
2016-05-06T12:14:36.268Z,20.39
2016-05-06T12:15:36.271Z,20.59
2016-05-06T12:16:36.273Z,20.68
2016-05-06T12:17:36.277Z,20.29
2016-05-06T12:18:36.295Z,20.59
2016-05-06T12:19:36.298Z,20.78
2016-05-06T12:20:36.301Z,20.59
2016-05-06T12:21:36.319Z,20.39
2016-05-06T12:22:36.322Z,20.49
2016-05-06T12:23:36.325Z,20.78
2016-05-06T12:24:36.327Z,20.59
2016-05-06T12:25:36.330Z,20.97
2016-05-06T12:26:36.817Z,20.96
2016-05-06T12:27:36.351Z,20.97
2016-05-06T12:28:36.353Z,20.96
2016-05-06T12:29:42.121Z,20.77
2016-05-06T12:30:36.359Z,20.96
2016-05-06T12:31:36.205Z,20.96
2016-05-06T12:32:36.395Z,20.97
2016-05-06T12:33:36.398Z,20.86
2016-05-06T12:34:36.385Z,21.44
2016-05-06T12:35:36.247Z,21.07
2016-05-06T12:36:36.405Z,21.06
2016-05-06T12:37:36.409Z,21.07
2016-05-06T12:38:36.271Z,20.86
2016-05-06T12:39:36.413Z,20.77
2016-05-06T12:40:36.433Z,20.78
2016-05-06T12:41:36.435Z,20.97
2016-05-06T12:42:36.437Z,20.87
2016-05-06T12:43:36.457Z,21.17
2016-05-06T12:44:36.474Z,21.06
2016-05-06T12:45:36.462Z,20.78
2016-05-06T12:46:36.464Z,20.86
2016-05-06T12:47:36.326Z,20.96
2016-05-06T12:48:36.485Z,20.77
2016-05-06T12:49:36.488Z,20.96
2016-05-06T12:50:36.491Z,21.17
2016-05-06T12:51:36.353Z,20.87
2016-05-06T12:52:36.512Z,20.97
2016-05-06T12:53:36.514Z,21.17
2016-05-06T12:54:36.361Z,21.06
2016-05-06T12:55:36.536Z,20.77
2016-05-06T12:56:36.538Z,20.86